CDT,Max TemperatureF,Mean TemperatureF,Min TemperatureF,Max Dew PointF,MeanDew PointF,Min DewpointF,Max Humidity, Mean Humidity, Min Humidity, Max Sea Level PressureIn, Mean Sea Level PressureIn, Min Sea Level PressureIn, Max VisibilityMiles, Mean VisibilityMiles, Min VisibilityMiles, Max Wind SpeedMPH, Mean Wind SpeedMPH, Max Gust SpeedMPH,PrecipitationIn, CloudCover, Events, WindDirDegrees
2013-10-1,85,67,49,57,45,-1,86,53,20,29.81,29.76,29.70,10,10,10,20,10,24,0.00,0,,133
2013-10-2,89,73,57,59,49,34,93,54,15,29.83,29.76,29.69,10,10,10,23,13,33,0.00,0,,163
2013-10-3,91,71,50,59,39,22,78,43,8,29.77,29.69,29.60,10,10,10,37,15,44,0.00,0,,203
2013-10-4,85,68,50,56,40,28,93,54,15,29.97,29.73,29.62,10,10,7,32,17,39,0.00,0,,238
2013-10-5,65,54,42,29,23,19,49,34,18,30.18,30.11,30.00,10,10,10,29,14,36,0.00,1,,327
2013-10-6,75,56,37,29,22,16,52,33,13,30.22,30.15,30.08,10,10,7,21,8,26,0.00,0,,311
2013-10-7,81,63,45,34,28,23,46,29,12,30.17,30.09,29.99,10,10,10,18,9,28,0.00,0,,225
2013-10-8,83,66,49,32,28,22,50,31,11,29.98,29.90,29.80,10,10,9,30,18,37,0.00,0,,174
2013-10-9,84,69,54,48,38,32,52,35,17,29.88,29.82,29.78,10,10,10,30,17,39,0.00,0,,167
2013-10-10,84,71,57,55,50,48,77,54,31,29.84,29.75,29.61,10,10,10,36,20,44,0.01,1,Rain-Thunderstorm,171
2013-10-11,79,62,45,38,23,8,53,30,7,29.86,29.76,29.70,10,10,10,29,15,36,0.00,0,,231
2013-10-12,70,55,40,40,35,22,86,57,28,30.14,30.05,29.86,10,10,10,20,11,25,0.00,0,,52
2013-10-13,65,55,45,58,52,39,100,82,63,30.28,30.17,30.08,10,7,0,23,13,30,0.09,6,Rain,114
2013-10-14,78,66,53,61,55,38,100,64,27,30.14,29.94,29.75,10,9,2,29,18,35,0.01,5,Rain,186
2013-10-15,60,51,42,39,31,27,62,45,28,30.16,30.09,29.96,10,10,10,28,16,33,0.00,3,,14
2013-10-16,56,48,39,37,33,29,76,57,38,30.23,30.13,30.04,10,10,5,17,8,25,0.01,6,Rain,10
2013-10-17,69,52,35,41,35,30,92,58,23,30.08,29.99,29.89,10,10,10,16,8,20,0.00,0,,165
2013-10-18,54,41,28,50,38,26,96,79,62,30.26,30.03,29.82,10,8,2,31,14,37,0.01,6,,33
2013-10-19,66,47,27,30,24,18,92,55,18,30.27,30.13,29.96,10,10,10,21,10,26,0.00,0,,225
2013-10-20,77,57,36,36,27,17,76,44,11,29.94,29.83,29.72,10,10,10,23,12,30,0.00,0,,287
2013-10-21,62,52,41,37,32,27,76,52,27,30.17,30.08,29.93,10,10,10,20,10,24,0.00,0,,3
2013-10-22,76,58,40,34,30,24,60,38,16,30.17,30.11,30.04,10,10,10,21,10,26,0.00,0,,235
2013-10-23,81,61,41,31,28,22,62,37,11,30.09,30.04,29.96,10,10,10,26,12,32,0.00,0,,207
2013-10-24,64,53,41,39,36,31,76,55,34,30.30,30.19,30.08,10,10,10,21,13,28,0.00,0,,113
2013-10-25,67,51,34,46,37,30,89,66,42,30.40,30.26,30.13,10,10,10,26,12,32,0.00,1,,158
2013-10-26,65,51,36,51,42,32,86,61,36,30.22,30.13,30.06,10,10,8,30,11,38,0.04,4,Rain,316
2013-10-27,74,54,33,32,29,26,82,51,19,30.20,30.04,29.88,10,10,10,22,11,28,0.00,0,,206
2013-10-28,74,61,47,58,49,34,86,68,50,30.00,29.88,29.80,10,10,7,24,16,30,0.00,2,,179
2013-10-29,77,61,45,59,47,37,97,62,27,30.05,29.91,29.81,10,10,9,26,12,33,0.00,3,,256
2013-10-30,77,68,58,61,49,25,97,57,16,29.92,29.77,29.62,10,9,7,26,15,35,T,3,,203
2013-10-31,65,52,38,37,28,15,76,46,15,29.96,29.78,29.62,10,10,8,36,13,45,0.00,1,,282